Time;durP1;ratioP1;P1;durP2;ratioP2;P2;SDS_P1;SDS_P2;PMS_P1;PMS_P2;Temp;Humidity;BMP_temperature;BMP_pressure;BME280_temperature;BME280_humidity;BME280_pressure;Samples;Min_cycle;Max_cycle;Signal;HPM_P1;HPM_P2
2023/05/10 00:00:23;;;;;;;12.87;5.70;;;8.00;99.90;;;;;;5055025;28;20195;-80
2023/05/10 00:02:50;;;;;;;11.93;5.80;;;8.00;99.90;;;;;;5054107;28;20205;-80
2023/05/10 00:05:18;;;;;;;10.40;5.90;;;7.90;99.90;;;;;;5055028;28;20175;-81
2023/05/10 00:07:45;;;;;;;9.27;5.70;;;7.90;99.90;;;;;;5055128;28;20277;-76
2023/05/10 00:10:12;;;;;;;13.00;6.27;;;7.90;99.90;;;;;;5054039;28;20210;-79
2023/05/10 00:12:41;;;;;;;11.53;6.20;;;7.80;99.90;;;;;;5054881;28;20210;-81
2023/05/10 00:15:09;;;;;;;11.27;5.70;;;7.80;99.90;;;;;;5053790;28;20304;-78
2023/05/10 00:17:36;;;;;;;9.03;5.50;;;7.80;99.90;;;;;;5054649;28;20303;-78
2023/05/10 00:20:04;;;;;;;9.67;5.70;;;7.60;99.90;;;;;;5053834;28;20205;-75
2023/05/10 00:22:32;;;;;;;8.87;5.47;;;7.60;99.90;;;;;;5053423;28;20199;-77
2023/05/10 00:24:59;;;;;;;10.07;5.93;;;7.60;99.90;;;;;;5054607;28;20225;-75
2023/05/10 00:27:25;;;;;;;10.67;5.50;;;7.50;99.90;;;;;;5053850;28;20201;-77
2023/05/10 00:29:52;;;;;;;8.57;5.20;;;7.50;99.90;;;;;;5037166;28;20245;-77
2023/05/10 00:32:20;;;;;;;11.70;6.07;;;7.50;99.90;;;;;;5054051;28;20317;-77
2023/05/10 00:34:47;;;;;;;8.17;5.10;;;7.50;99.90;;;;;;5053656;28;20207;-77
2023/05/10 00:37:14;;;;;;;9.47;5.67;;;7.50;99.90;;;;;;5055370;28;20194;-78
2023/05/10 00:39:41;;;;;;;9.30;5.30;;;7.50;99.90;;;;;;5053337;28;20631;-75
2023/05/10 00:42:08;;;;;;;10.73;5.83;;;7.40;99.90;;;;;;5054199;28;20214;-79
2023/05/10 00:44:35;;;;;;;9.90;5.67;;;7.50;99.90;;;;;;5055347;28;20187;-80
2023/05/10 00:47:02;;;;;;;9.60;5.37;;;7.40;99.90;;;;;;5056072;28;20203;-79
2023/05/10 00:49:29;;;;;;;10.10;5.50;;;7.30;99.90;;;;;;5037752;28;20608;-80
2023/05/10 00:51:56;;;;;;;9.23;5.13;;;7.30;99.90;;;;;;5053076;28;20214;-80
2023/05/10 00:54:24;;;;;;;8.93;5.10;;;7.40;99.90;;;;;;5053586;28;20227;-79
2023/05/10 00:56:51;;;;;;;8.43;5.30;;;7.30;99.90;;;;;;5054820;28;20273;-79
2023/05/10 00:59:19;;;;;;;9.60;4.97;;;7.30;99.90;;;;;;5053224;28;20187;-77
2023/05/10 01:01:47;;;;;;;8.27;5.43;;;7.30;99.90;;;;;;5052814;28;20667;-78
2023/05/10 01:04:15;;;;;;;7.87;5.10;;;7.20;99.90;;;;;;5052956;28;20305;-80
2023/05/10 01:06:42;;;;;;;9.87;5.03;;;7.30;99.90;;;;;;5052740;28;20205;-79
2023/05/10 01:09:11;;;;;;;8.03;4.87;;;7.30;99.90;;;;;;5053029;28;20739;-79
2023/05/10 01:11:40;;;;;;;9.53;5.13;;;7.30;99.90;;;;;;5055232;28;20620;-79
2023/05/10 01:14:07;;;;;;;9.77;5.60;;;7.20;99.90;;;;;;5054647;28;20195;-78
2023/05/10 01:16:37;;;;;;;9.77;4.80;;;7.20;99.90;;;;;;5052879;28;20252;-79
2023/05/10 01:19:26;;;;;;;11.33;5.30;;;7.20;99.90;;;;;;5052354;28;20211;-79
2023/05/10 01:22:03;;;;;;;9.37;5.27;;;7.10;99.90;;;;;;5052327;28;20199;-78
2023/05/10 01:25:07;;;;;;;11.03;5.60;;;7.10;99.90;;;;;;5054000;28;20556;-79
2023/05/10 01:27:43;;;;;;;10.13;5.20;;;7.00;99.90;;;;;;5054342;28;20209;-78
2023/05/10 01:30:35;;;;;;;9.67;5.27;;;7.00;99.90;;;;;;5052578;28;20206;-77
2023/05/10 01:33:23;;;;;;;9.13;5.20;;;7.00;99.90;;;;;;5053968;28;20214;-77
2023/05/10 01:36:01;;;;;;;8.70;5.10;;;7.00;99.90;;;;;;5053409;28;20191;-78
2023/05/10 01:38:56;;;;;;;9.77;5.17;;;7.00;99.90;;;;;;5054203;28;20289;-78
2023/05/10 01:41:50;;;;;;;10.90;4.80;;;7.00;99.90;;;;;;5053960;28;20245;-78
2023/05/10 01:44:46;;;;;;;9.57;4.80;;;7.00;99.90;;;;;;5054023;28;20207;-77
2023/05/10 01:47:24;;;;;;;10.60;4.70;;;7.00;99.90;;;;;;5051774;28;20207;-78
2023/05/10 01:49:55;;;;;;;9.63;4.40;;;6.90;99.90;;;;;;5051904;28;20623;-78
2023/05/10 01:52:30;;;;;;;7.87;4.40;;;6.90;99.90;;;;;;5051843;28;20217;-78
2023/05/10 01:55:05;;;;;;;9.07;5.00;;;6.90;99.90;;;;;;5051631;28;20655;-77
2023/05/10 01:57:40;;;;;;;7.90;4.73;;;6.90;99.90;;;;;;5051941;28;20237;-77
2023/05/10 02:00:08;;;;;;;7.30;4.80;;;6.90;99.90;;;;;;5051839;28;20202;-78
2023/05/10 02:02:39;;;;;;;9.10;5.07;;;6.80;99.90;;;;;;5053106;28;20183;-78
2023/05/10 02:05:07;;;;;;;9.53;4.63;;;6.90;99.90;;;;;;5051847;28;20229;-77
2023/05/10 02:07:37;;;;;;;10.30;4.60;;;6.90;99.90;;;;;;5052043;28;20230;-78
2023/05/10 02:10:07;;;;;;;9.53;4.60;;;6.90;99.90;;;;;;5054659;28;20214;-78
2023/05/10 02:12:41;;;;;;;6.90;4.27;;;6.90;99.90;;;;;;5052537;28;20237;-76
2023/05/10 02:15:11;;;;;;;8.10;3.90;;;6.90;99.90;;;;;;5052059;28;20727;-78
2023/05/10 02:17:39;;;;;;;9.53;4.50;;;6.80;99.90;;;;;;5051174;28;20202;-77
2023/05/10 02:20:08;;;;;;;8.27;4.47;;;6.80;99.90;;;;;;5052725;28;20293;-77
2023/05/10 02:22:36;;;;;;;9.17;4.40;;;6.70;99.90;;;;;;5052699;28;20187;-78
2023/05/10 02:25:03;;;;;;;10.73;4.67;;;6.80;99.90;;;;;;5051093;28;20211;-77
2023/05/10 02:27:31;;;;;;;7.70;4.60;;;6.70;99.90;;;;;;5051721;28;20644;-78
2023/05/10 02:29:58;;;;;;;7.67;4.83;;;6.70;99.90;;;;;;5050842;28;20706;-79
2023/05/10 02:32:27;;;;;;;7.43;4.70;;;6.70;99.90;;;;;;5052763;28;20214;-78
2023/05/10 02:34:55;;;;;;;7.70;5.13;;;6.70;99.90;;;;;;5051379;28;20225;-79
2023/05/10 02:37:23;;;;;;;10.13;5.10;;;6.70;99.90;;;;;;5052445;28;20290;-78
2023/05/10 02:39:53;;;;;;;7.97;4.97;;;6.70;99.90;;;;;;5051642;28;20191;-78
2023/05/10 02:42:26;;;;;;;11.30;5.00;;;6.70;99.90;;;;;;5052108;28;20237;-80
2023/05/10 02:44:56;;;;;;;10.40;5.20;;;6.60;99.90;;;;;;5051687;28;20299;-79
2023/05/10 02:47:23;;;;;;;8.87;4.90;;;6.70;99.90;;;;;;5050682;28;20206;-79
2023/05/10 02:49:50;;;;;;;9.07;5.07;;;6.60;99.90;;;;;;5051022;28;20664;-79
2023/05/10 02:52:23;;;;;;;9.40;5.10;;;6.60;99.90;;;;;;5051038;28;20558;-80
2023/05/10 02:54:55;;;;;;;10.43;5.47;;;6.60;99.90;;;;;;5051571;28;20222;-79
2023/05/10 02:57:27;;;;;;;9.30;5.80;;;6.50;99.90;;;;;;5051144;28;20881;-79
2023/05/10 02:59:55;;;;;;;9.50;5.73;;;6.50;99.90;;;;;;5051310;28;20202;-78
2023/05/10 03:02:21;;;;;;;10.23;5.30;;;6.50;99.90;;;;;;5052995;28;20209;-79
2023/05/10 03:04:49;;;;;;;9.53;5.97;;;6.50;99.90;;;;;;5052708;28;20264;-78
2023/05/10 03:07:19;;;;;;;10.57;5.87;;;6.50;99.90;;;;;;5052002;28;20197;-77
2023/05/10 03:09:45;;;;;;;10.40;5.63;;;6.60;99.90;;;;;;5050855;28;20209;-78
2023/05/10 03:12:42;;;;;;;8.83;5.37;;;6.50;99.90;;;;;;5052064;28;20222;-79
2023/05/10 03:15:20;;;;;;;10.03;5.27;;;6.50;99.90;;;;;;5050636;28;20202;-78
2023/05/10 03:18:01;;;;;;;9.83;5.03;;;6.50;99.90;;;;;;5050426;28;20190;-78
2023/05/10 03:20:43;;;;;;;6.90;4.93;;;6.50;99.90;;;;;;5050138;28;20198;-78
2023/05/10 03:23:29;;;;;;;12.07;5.33;;;6.50;99.90;;;;;;5053680;28;20627;-80
2023/05/10 03:25:57;;;;;;;7.50;4.57;;;6.50;99.90;;;;;;5050832;28;20226;-79
2023/05/10 03:28:27;;;;;;;7.63;4.93;;;6.60;99.90;;;;;;5051921;28;20207;-79
2023/05/10 03:30:55;;;;;;;7.27;4.60;;;6.50;99.90;;;;;;5050041;28;20216;-79
2023/05/10 03:33:22;;;;;;;8.53;4.67;;;6.50;99.90;;;;;;5050565;28;20232;-80
2023/05/10 03:35:49;;;;;;;10.47;4.80;;;6.50;99.90;;;;;;5050354;28;20569;-79
2023/05/10 03:38:16;;;;;;;10.73;4.80;;;6.60;99.90;;;;;;5050716;28;20201;-80
2023/05/10 03:40:42;;;;;;;9.10;5.20;;;6.60;99.90;;;;;;5051809;28;20183;-80
2023/05/10 03:43:09;;;;;;;7.80;4.37;;;6.70;99.90;;;;;;5050641;28;20195;-79
2023/05/10 03:45:36;;;;;;;6.80;4.40;;;6.60;99.90;;;;;;5050461;28;20701;-77
2023/05/10 03:48:04;;;;;;;8.63;4.23;;;6.70;99.90;;;;;;5052337;28;20301;-77
2023/05/10 03:50:31;;;;;;;9.43;4.60;;;6.70;99.90;;;;;;5050658;28;20191;-80
2023/05/10 03:52:58;;;;;;;7.20;4.20;;;6.70;99.90;;;;;;5055674;28;20648;-79
2023/05/10 03:55:25;;;;;;;11.87;4.77;;;6.70;99.90;;;;;;5052033;28;20191;-79
2023/05/10 03:57:53;;;;;;;8.57;4.47;;;6.80;99.90;;;;;;5050211;28;20226;-78
2023/05/10 04:00:20;;;;;;;7.93;4.50;;;6.80;99.90;;;;;;5050455;28;20222;-79
2023/05/10 04:02:47;;;;;;;5.50;4.00;;;6.80;99.90;;;;;;5051017;28;20195;-78
2023/05/10 04:05:14;;;;;;;8.13;4.83;;;6.80;99.90;;;;;;5052466;28;20244;-79
2023/05/10 04:07:41;;;;;;;9.13;4.33;;;6.90;99.90;;;;;;5051110;28;20187;-78
2023/05/10 04:10:08;;;;;;;7.70;4.43;;;7.00;99.90;;;;;;5051037;28;20203;-79
2023/05/10 04:12:35;;;;;;;10.77;4.70;;;7.00;99.90;;;;;;5053606;28;20211;-79
2023/05/10 04:15:02;;;;;;;10.33;4.80;;;7.10;99.90;;;;;;5053309;28;20675;-76
2023/05/10 04:17:29;;;;;;;8.03;4.60;;;7.10;99.90;;;;;;5052048;28;20207;-78
2023/05/10 04:19:56;;;;;;;7.43;4.30;;;7.10;99.90;;;;;;5051893;28;20206;-78
2023/05/10 04:22:23;;;;;;;8.03;4.00;;;7.20;99.90;;;;;;5052242;28;20678;-77
2023/05/10 04:24:50;;;;;;;9.23;4.43;;;7.20;99.90;;;;;;5052581;28;20195;-78
2023/05/10 04:27:17;;;;;;;10.83;4.33;;;7.20;99.90;;;;;;5051067;28;20527;-79
2023/05/10 04:29:44;;;;;;;10.60;4.20;;;7.30;99.90;;;;;;5056483;28;20222;-77
2023/05/10 04:32:12;;;;;;;11.07;5.10;;;7.30;99.90;;;;;;5052647;28;20195;-79
2023/05/10 04:34:40;;;;;;;10.23;4.27;;;7.40;99.90;;;;;;5055755;28;20568;-78
2023/05/10 04:37:07;;;;;;;6.57;4.17;;;7.50;99.90;;;;;;5057800;28;20226;-81
2023/05/10 04:39:35;;;;;;;8.43;4.57;;;7.50;99.90;;;;;;5055549;28;20210;-81
2023/05/10 04:42:05;;;;;;;8.17;4.40;;;7.50;99.90;;;;;;5054861;28;20195;-80
2023/05/10 04:44:32;;;;;;;9.10;4.90;;;7.60;99.90;;;;;;5037781;28;20637;-83
2023/05/10 04:46:59;;;;;;;10.33;4.50;;;7.60;99.90;;;;;;5055251;28;20297;-83
2023/05/10 04:49:26;;;;;;;8.77;4.90;;;7.70;99.90;;;;;;5056539;28;20187;-81
2023/05/10 04:51:53;;;;;;;10.13;4.57;;;7.70;99.90;;;;;;5053497;28;20304;-81
2023/05/10 04:54:20;;;;;;;14.90;4.80;;;7.90;99.90;;;;;;5053548;28;20257;-81
2023/05/10 04:56:47;;;;;;;10.60;5.07;;;7.90;99.90;;;;;;5056747;28;20225;-81
2023/05/10 04:59:14;;;;;;;9.87;4.67;;;8.00;99.90;;;;;;5053661;28;20648;-81
2023/05/10 05:01:41;;;;;;;7.80;4.97;;;8.10;99.90;;;;;;5054379;28;20564;-81
2023/05/10 05:04:08;;;;;;;8.87;4.43;;;8.30;99.90;;;;;;5056190;28;20215;-82
2023/05/10 05:06:35;;;;;;;6.60;4.47;;;8.50;99.90;;;;;;5054444;28;20598;-81
2023/05/10 05:09:02;;;;;;;11.93;4.63;;;8.50;99.90;;;;;;5053295;28;20203;-77
2023/05/10 05:11:29;;;;;;;12.03;4.83;;;8.60;99.90;;;;;;5053229;28;20195;-78
2023/05/10 05:13:58;;;;;;;21.17;5.73;;;8.60;99.90;;;;;;5057340;28;20569;-82
2023/05/10 05:16:32;;;;;;;16.13;5.93;;;8.70;99.90;;;;;;5054016;28;20182;-81
2023/05/10 05:19:00;;;;;;;74.03;13.90;;;8.90;99.90;;;;;;5052731;28;20203;-81
2023/05/10 05:21:28;;;;;;;20.70;6.20;;;8.80;99.90;;;;;;5052832;28;20587;-80
2023/05/10 05:23:55;;;;;;;15.37;4.90;;;8.80;99.90;;;;;;5057720;28;20256;-78
2023/05/10 05:26:22;;;;;;;18.60;5.67;;;8.90;99.90;;;;;;5056135;28;20191;-82
2023/05/10 05:28:51;;;;;;;17.53;5.23;;;9.00;99.90;;;;;;5054665;28;20228;-77
2023/05/10 05:31:18;;;;;;;21.23;5.53;;;9.00;99.90;;;;;;5053140;28;20273;-81
2023/05/10 05:33:46;;;;;;;20.40;6.07;;;9.20;99.90;;;;;;5053582;28;20326;-83
2023/05/10 05:36:12;;;;;;;22.57;5.87;;;9.30;99.90;;;;;;5053397;28;20199;-81
2023/05/10 05:38:40;;;;;;;26.13;6.43;;;9.40;99.90;;;;;;5054140;28;20666;-78
2023/05/10 05:41:06;;;;;;;23.43;5.57;;;9.50;99.90;;;;;;5055753;28;20205;-78
2023/05/10 05:43:33;;;;;;;7.63;4.03;;;9.60;99.90;;;;;;5053382;28;20524;-79
2023/05/10 05:46:03;;;;;;;12.20;4.13;;;9.70;99.90;;;;;;5052584;28;20297;-79
2023/05/10 05:48:31;;;;;;;8.03;3.90;;;9.90;99.90;;;;;;5052691;28;20193;-81
2023/05/10 05:50:58;;;;;;;9.83;4.17;;;9.90;99.90;;;;;;5054567;28;20203;-80
2023/05/10 05:53:25;;;;;;;7.70;3.70;;;10.00;99.90;;;;;;5054472;28;20214;-80
2023/05/10 05:55:57;;;;;;;8.20;4.20;;;10.20;99.90;;;;;;5051598;28;20277;-79
2023/05/10 05:58:25;;;;;;;6.90;3.57;;;10.20;99.90;;;;;;5055979;28;20224;-79
2023/05/10 06:00:52;;;;;;;11.70;4.73;;;10.30;99.90;;;;;;5052653;28;20199;-84
2023/05/10 06:03:20;;;;;;;14.53;5.23;;;10.40;99.90;;;;;;5053506;28;20213;-82
2023/05/10 06:05:47;;;;;;;9.40;4.03;;;10.50;99.90;;;;;;5053515;28;20230;-80
2023/05/10 06:08:14;;;;;;;19.20;6.57;;;10.60;99.90;;;;;;5053609;28;20199;-80
2023/05/10 06:10:41;;;;;;;12.77;4.90;;;10.70;99.90;;;;;;5051511;28;20203;-78
2023/05/10 06:13:08;;;;;;;10.63;4.17;;;10.80;99.90;;;;;;5039513;28;20246;-81
2023/05/10 06:15:36;;;;;;;12.13;4.37;;;10.90;99.90;;;;;;5052613;28;20190;-78
2023/05/10 06:18:04;;;;;;;9.30;4.30;;;11.00;99.90;;;;;;5053242;28;20203;-79
2023/05/10 06:20:34;;;;;;;12.97;4.23;;;11.10;99.90;;;;;;5051668;28;20256;-78
2023/05/10 06:23:01;;;;;;;11.03;4.20;;;11.30;99.90;;;;;;5064834;28;20200;-80
2023/05/10 06:25:28;;;;;;;7.17;3.70;;;11.40;99.90;;;;;;5067750;28;20668;-78
2023/05/10 06:27:57;;;;;;;8.00;4.00;;;11.50;99.90;;;;;;5036983;28;20548;-80
2023/05/10 06:30:28;;;;;;;6.67;3.10;;;11.60;99.90;;;;;;5051079;28;20213;-79
2023/05/10 06:33:01;;;;;;;9.83;3.43;;;11.80;99.90;;;;;;5034080;28;20215;-79
2023/05/10 06:35:28;;;;;;;7.87;3.70;;;11.80;99.90;;;;;;5033807;28;20249;-79
2023/05/10 06:37:55;;;;;;;5.97;3.17;;;11.90;99.90;;;;;;5033729;28;20202;-77
2023/05/10 06:40:22;;;;;;;6.23;3.10;;;12.00;99.90;;;;;;5035036;28;20195;-81
2023/05/10 06:42:49;;;;;;;6.97;3.17;;;12.20;99.90;;;;;;5031519;28;20227;-81
2023/05/10 06:45:17;;;;;;;5.63;2.93;;;12.30;99.90;;;;;;5032688;28;20223;-80
2023/05/10 06:47:44;;;;;;;7.60;3.07;;;12.30;99.90;;;;;;5034784;28;20245;-79
2023/05/10 06:50:11;;;;;;;8.50;3.10;;;12.40;99.90;;;;;;5032474;28;20211;-81
2023/05/10 06:52:38;;;;;;;6.63;3.30;;;12.50;99.90;;;;;;5033286;28;20196;-81
2023/05/10 06:55:06;;;;;;;5.53;2.80;;;12.70;99.90;;;;;;5031357;28;20234;-77
2023/05/10 06:57:33;;;;;;;9.50;3.00;;;12.80;99.90;;;;;;5030162;28;20787;-76
2023/05/10 07:00:00;;;;;;;7.90;2.83;;;12.90;99.90;;;;;;5032408;28;20199;-78
2023/05/10 07:02:27;;;;;;;7.93;3.20;;;13.00;99.90;;;;;;5031192;28;20215;-82
2023/05/10 07:04:54;;;;;;;6.17;2.80;;;13.10;99.90;;;;;;5034552;28;20283;-84
2023/05/10 07:07:21;;;;;;;5.17;3.10;;;13.30;99.90;;;;;;5030900;28;20629;-80
2023/05/10 07:09:49;;;;;;;11.50;3.47;;;13.40;99.90;;;;;;5030937;28;20211;-80
2023/05/10 07:12:17;;;;;;;4.10;2.50;;;13.40;99.90;;;;;;5034179;28;20197;-80
2023/05/10 07:14:45;;;;;;;6.70;2.50;;;13.50;97.80;;;;;;5033137;28;20573;-79
2023/05/10 07:17:12;;;;;;;3.83;2.80;;;13.50;96.70;;;;;;5033534;28;20245;-82
2023/05/10 07:19:38;;;;;;;6.30;2.80;;;13.50;97.40;;;;;;5033026;28;20292;-80
2023/05/10 07:22:05;;;;;;;10.10;2.70;;;13.60;99.00;;;;;;5043260;28;20555;-80
2023/05/10 07:24:33;;;;;;;5.70;2.40;;;13.80;98.30;;;;;;5061101;28;20190;-81
2023/05/10 07:27:00;;;;;;;7.00;2.40;;;13.90;92.90;;;;;;5057688;28;20194;-81
2023/05/10 07:29:27;;;;;;;4.03;2.10;;;14.00;91.40;;;;;;5050337;28;20285;-80
2023/05/10 07:31:54;;;;;;;4.13;2.30;;;13.90;90.40;;;;;;5068608;28;20190;-78
2023/05/10 07:34:24;;;;;;;3.50;2.20;;;13.90;91.30;;;;;;5071346;28;20209;-80
2023/05/10 07:36:52;;;;;;;4.17;2.30;;;14.10;91.40;;;;;;5070866;28;20293;-80
2023/05/10 07:39:20;;;;;;;4.93;2.10;;;14.20;90.20;;;;;;5062230;28;20564;-77
2023/05/10 07:41:54;;;;;;;5.10;2.00;;;14.40;89.00;;;;;;5050221;28;20202;-80
2023/05/10 07:44:21;;;;;;;3.00;1.97;;;14.50;84.70;;;;;;5050502;28;20206;-79
2023/05/10 07:46:48;;;;;;;2.70;2.10;;;14.50;85.60;;;;;;5051316;28;20187;-79
2023/05/10 07:49:16;;;;;;;5.07;2.10;;;14.70;83.20;;;;;;5049814;28;20230;-80
2023/05/10 07:51:43;;;;;;;4.07;2.33;;;14.80;84.50;;;;;;5050330;28;20187;-81
2023/05/10 07:54:10;;;;;;;4.90;2.10;;;14.80;82.40;;;;;;5050073;28;20266;-79
2023/05/10 07:56:37;;;;;;;6.47;2.13;;;14.80;82.20;;;;;;5060435;28;20237;-79
2023/05/10 07:59:06;;;;;;;4.20;2.10;;;15.00;81.10;;;;;;5070070;28;20221;-80
2023/05/10 08:01:35;;;;;;;4.60;2.10;;;15.10;78.10;;;;;;5071320;28;20218;-79
2023/05/10 08:04:02;;;;;;;4.87;1.70;;;15.20;76.30;;;;;;5071195;28;20272;-78
2023/05/10 08:06:29;;;;;;;4.67;1.80;;;15.30;75.50;;;;;;5070304;28;20226;-78
2023/05/10 08:08:57;;;;;;;5.60;2.10;;;15.40;74.80;;;;;;5073855;28;20225;-77
2023/05/10 08:11:24;;;;;;;7.37;2.53;;;15.80;73.10;;;;;;5077015;28;20669;-74
2023/05/10 08:13:51;;;;;;;2.83;2.10;;;16.70;66.60;;;;;;5074516;28;20234;-77
2023/05/10 08:16:19;;;;;;;3.30;2.00;;;17.50;63.70;;;;;;5073919;28;20560;-74
2023/05/10 08:18:47;;;;;;;5.33;2.10;;;18.00;58.20;;;;;;5074657;28;20280;-76
2023/05/10 08:21:15;;;;;;;4.53;2.33;;;18.20;58.90;;;;;;5074760;28;20277;-79
2023/05/10 08:23:43;;;;;;;4.17;2.00;;;18.60;57.00;;;;;;5076229;28;20205;-81
2023/05/10 08:26:11;;;;;;;4.57;1.93;;;18.90;55.50;;;;;;5075173;28;20647;-79
2023/05/10 08:28:38;;;;;;;8.30;1.90;;;19.20;55.60;;;;;;5077253;28;20232;-79
2023/05/10 08:31:05;;;;;;;6.23;2.20;;;19.20;54.10;;;;;;5061231;28;20209;-80
2023/05/10 08:33:33;;;;;;;5.73;1.87;;;19.60;55.10;;;;;;5053903;28;20218;-74
2023/05/10 08:36:00;;;;;;;7.10;2.20;;;20.10;52.80;;;;;;5053312;28;20203;-79
2023/05/10 08:38:27;;;;;;;6.03;2.30;;;20.10;52.40;;;;;;5055073;28;20210;-77
2023/05/10 08:40:58;;;;;;;10.00;2.77;;;20.00;51.90;;;;;;5053377;28;20233;-79
2023/05/10 08:43:28;;;;;;;4.33;1.97;;;20.00;51.50;;;;;;5055805;28;20201;-80
2023/05/10 08:45:57;;;;;;;4.17;2.00;;;20.00;51.90;;;;;;5056231;28;20257;-81
2023/05/10 08:48:24;;;;;;;5.90;1.73;;;20.30;50.40;;;;;;5054997;28;20285;-80
2023/05/10 08:50:54;;;;;;;6.13;2.00;;;20.10;50.90;;;;;;5055438;28;20217;-79
2023/05/10 08:53:25;;;;;;;11.40;2.07;;;20.20;50.30;;;;;;5054057;28;20215;-76
2023/05/10 08:55:52;;;;;;;4.03;1.87;;;20.20;49.90;;;;;;5052734;28;20566;-77
2023/05/10 08:58:20;;;;;;;5.17;2.03;;;20.30;49.60;;;;;;5053277;28;20187;-76
2023/05/10 09:00:52;;;;;;;5.03;2.40;;;20.10;49.80;;;;;;5052574;28;20201;-76
2023/05/10 09:03:20;;;;;;;4.17;2.00;;;20.50;48.90;;;;;;5035984;28;20198;-75
2023/05/10 09:05:47;;;;;;;4.23;2.30;;;20.80;49.90;;;;;;5052822;28;20201;-77
2023/05/10 09:08:18;;;;;;;5.83;2.20;;;21.10;49.60;;;;;;5052928;28;20229;-80
2023/05/10 09:10:47;;;;;;;2.40;1.70;;;21.30;49.80;;;;;;5037044;28;20194;-79
2023/05/10 09:13:16;;;;;;;4.50;2.07;;;21.30;48.30;;;;;;5054074;28;20262;-80
2023/05/10 09:15:44;;;;;;;5.33;2.17;;;21.30;48.40;;;;;;5052773;28;20207;-82
2023/05/10 09:18:12;;;;;;;5.90;2.10;;;21.10;48.90;;;;;;5053261;28;20289;-83
2023/05/10 09:20:39;;;;;;;4.23;2.47;;;21.00;49.00;;;;;;5051845;28;20553;-76
2023/05/10 09:23:07;;;;;;;3.03;1.97;;;20.90;48.80;;;;;;5036589;28;20183;-76
2023/05/10 09:25:34;;;;;;;3.97;2.20;;;20.90;49.70;;;;;;5053380;28;20195;-80
2023/05/10 09:28:02;;;;;;;5.73;2.23;;;20.70;49.30;;;;;;5052975;28;20230;-83
2023/05/10 09:30:30;;;;;;;4.60;2.20;;;20.70;49.60;;;;;;5066242;28;20374;-82
2023/05/10 09:32:59;;;;;;;5.57;2.20;;;20.80;50.10;;;;;;5072785;28;20248;-83
2023/05/10 09:35:29;;;;;;;4.63;2.10;;;21.00;49.70;;;;;;5072531;28;20218;-82
2023/05/10 09:38:00;;;;;;;5.33;2.23;;;21.40;49.00;;;;;;5056104;28;20198;-82
2023/05/10 09:40:28;;;;;;;7.47;2.30;;;21.40;48.50;;;;;;5073714;28;20248;-83
2023/05/10 09:42:57;;;;;;;5.47;2.40;;;21.50;48.40;;;;;;5074303;28;20179;-83
2023/05/10 09:45:26;;;;;;;4.03;2.33;;;21.50;48.00;;;;;;5072844;28;20293;-81
2023/05/10 09:47:54;;;;;;;4.07;2.17;;;21.50;48.40;;;;;;5073361;28;20469;-84
2023/05/10 09:50:22;;;;;;;4.40;2.10;;;21.50;48.10;;;;;;5074631;28;20190;-81
2023/05/10 09:52:53;;;;;;;6.07;2.40;;;21.70;48.60;;;;;;5072824;28;20221;-81
2023/05/10 09:55:25;;;;;;;2.83;2.00;;;22.10;49.20;;;;;;5072778;28;20308;-83
2023/05/10 09:58:00;;;;;;;5.87;2.20;;;22.10;47.10;;;;;;5079912;28;20243;-84
2023/05/10 10:00:28;;;;;;;5.25;2.40;;;21.90;47.00;;;;;;5072687;28;20296;-78
2023/05/10 10:02:57;;;;;;;4.35;2.40;;;21.90;47.60;;;;;;5073823;28;20194;-84
2023/05/10 10:05:31;;;;;;;7.20;2.40;;;22.40;47.00;;;;;;5081519;28;20200;-81
2023/05/10 10:07:59;;;;;;;8.30;2.70;;;22.50;46.40;;;;;;5082756;28;20219;-87
2023/05/10 10:10:27;;;;;;;5.72;2.20;;;22.20;46.00;;;;;;5076067;28;20554;-87
2023/05/10 10:12:55;;;;;;;3.83;2.20;;;22.70;46.20;;;;;;5074171;28;20190;-86
2023/05/10 10:15:22;;;;;;;3.97;2.47;;;22.90;46.00;;;;;;5074559;28;20679;-85
2023/05/10 10:17:51;;;;;;;6.60;2.20;;;22.90;44.70;;;;;;5082996;28;20225;-79
2023/05/10 10:20:20;;;;;;;9.50;2.50;;;23.10;46.40;;;;;;5074149;28;20638;-88
2023/05/10 10:22:48;;;;;;;4.00;2.42;;;23.30;45.20;;;;;;5056809;28;20194;-87
2023/05/10 10:25:16;;;;;;;8.80;2.50;;;23.20;44.80;;;;;;5074840;28;20277;-88
2023/05/10 10:27:53;;;;;;;7.30;2.40;;;23.20;45.80;;;;;;5073731;28;20285;-86
2023/05/10 10:30:23;;;;;;;6.72;2.53;;;23.40;45.30;;;;;;5075021;28;20251;-88
2023/05/10 10:33:28;;;;;;;6.47;2.33;;;23.70;45.50;;;;;;5077521;28;20285;-81
2023/05/10 10:35:59;;;;;;;10.52;2.30;;;23.70;44.50;;;;;;5089634;28;20686;-76
2023/05/10 10:38:59;;;;;;;6.55;2.50;;;23.60;44.40;;;;;;5068977;28;20186;-82
2023/05/10 10:41:35;;;;;;;4.75;2.28;;;23.70;44.60;;;;;;5090916;28;20200;-82
2023/05/10 10:44:22;;;;;;;7.05;2.63;;;24.20;43.40;;;;;;5089039;28;20201;-85
2023/05/10 10:47:11;;;;;;;3.45;2.20;;;24.40;42.70;;;;;;5056242;28;20247;-84
2023/05/10 10:49:42;;;;;;;6.93;2.17;;;24.00;42.50;;;;;;5073159;28;20194;-80
2023/05/10 10:52:16;;;;;;;5.45;2.35;;;23.80;42.70;;;;;;5075196;28;20836;-80
2023/05/10 10:54:52;;;;;;;5.20;2.17;;;24.00;42.80;;;;;;5072707;28;20271;-83
2023/05/10 10:57:21;;;;;;;4.47;2.28;;;24.60;43.60;;;;;;5072178;28;20226;-78
2023/05/10 10:59:50;;;;;;;5.50;2.30;;;24.90;41.20;;;;;;5072595;28;20210;-83
2023/05/10 11:02:45;;;;;;;3.58;2.17;;;24.80;42.30;;;;;;5071785;28;20247;-85
2023/05/10 11:05:34;;;;;;;4.55;2.50;;;24.90;43.60;;;;;;5071848;28;20202;-84
2023/05/10 11:08:11;;;;;;;6.40;2.55;;;24.70;41.50;;;;;;5068232;28;20198;-83
2023/05/10 11:10:51;;;;;;;6.95;2.80;;;24.80;41.90;;;;;;5073456;28;20190;-86
2023/05/10 11:13:33;;;;;;;4.78;2.20;;;24.40;42.40;;;;;;5072240;28;20194;-84
2023/05/10 11:16:13;;;;;;;6.10;2.53;;;24.60;42.60;;;;;;5072987;28;20233;-84
2023/05/10 11:18:40;;;;;;;8.45;2.70;;;24.70;41.10;;;;;;5073142;28;20190;-85
2023/05/10 11:21:10;;;;;;;3.92;2.40;;;24.30;41.70;;;;;;5073325;28;20250;-84
2023/05/10 11:23:48;;;;;;;4.88;2.10;;;24.30;42.50;;;;;;5072412;28;20174;-86
2023/05/10 11:26:15;;;;;;;4.65;2.30;;;24.10;42.50;;;;;;5071412;28;20635;-84
2023/05/10 11:28:47;;;;;;;5.03;2.40;;;24.60;42.20;;;;;;5065729;28;20198;-84
2023/05/10 11:31:19;;;;;;;7.10;2.40;;;25.00;42.00;;;;;;5072008;28;20237;-86
2023/05/10 11:33:54;;;;;;;5.78;2.47;;;25.00;41.80;;;;;;5075062;28;20202;-85
2023/05/10 11:36:23;;;;;;;3.85;2.30;;;25.00;41.60;;;;;;5078193;28;20218;-87
2023/05/10 11:38:50;;;;;;;4.30;2.50;;;24.60;41.80;;;;;;5072333;28;20198;-86
2023/05/10 11:41:21;;;;;;;8.25;2.50;;;24.30;42.40;;;;;;5071724;28;20296;-86
2023/05/10 11:43:53;;;;;;;5.40;2.42;;;24.40;43.60;;;;;;5077617;28;20190;-87
2023/05/10 11:46:24;;;;;;;9.63;2.70;;;24.90;42.50;;;;;;5075034;28;20197;-84
2023/05/10 11:49:03;;;;;;;7.45;2.60;;;24.60;41.30;;;;;;5076807;28;20205;-86
2023/05/10 11:51:35;;;;;;;5.28;2.60;;;24.20;41.90;;;;;;5059698;28;20189;-84
2023/05/10 11:54:08;;;;;;;5.65;2.60;;;24.20;43.10;;;;;;5076503;28;20308;-87
2023/05/10 11:56:39;;;;;;;4.15;2.30;;;24.30;42.50;;;;;;5076143;28;20229;-84
2023/05/10 11:59:07;;;;;;;3.63;2.40;;;25.00;42.10;;;;;;5074707;28;20193;-83
2023/05/10 12:01:35;;;;;;;8.63;2.53;;;25.30;42.20;;;;;;5074991;28;20206;-85
2023/05/10 12:04:04;;;;;;;5.72;2.47;;;25.40;41.60;;;;;;5077540;28;20243;-84
2023/05/10 12:06:40;;;;;;;3.30;2.20;;;25.10;40.70;;;;;;5076518;28;20194;-83
2023/05/10 12:09:08;;;;;;;4.72;2.30;;;25.10;41.40;;;;;;5075688;28;20178;-84
2023/05/10 12:11:39;;;;;;;6.85;2.58;;;25.60;41.40;;;;;;5076156;28;20732;-83
2023/05/10 12:14:10;;;;;;;5.43;2.58;;;25.80;41.10;;;;;;5074884;28;20723;-79
2023/05/10 12:16:37;;;;;;;7.03;2.47;;;25.20;40.50;;;;;;5076624;28;20201;-78
2023/05/10 12:19:05;;;;;;;3.88;2.30;;;25.30;41.00;;;;;;5075268;28;20305;-86
2023/05/10 12:21:33;;;;;;;4.00;2.20;;;25.20;41.60;;;;;;5075000;28;20674;-88
2023/05/10 12:24:02;;;;;;;7.03;2.50;;;25.10;41.60;;;;;;5076533;28;20194;-85
2023/05/10 12:26:30;;;;;;;8.40;2.53;;;25.20;40.80;;;;;;5086091;28;20194;-83
2023/05/10 12:29:17;;;;;;;6.60;2.38;;;25.40;41.20;;;;;;5081841;28;20194;-86
2023/05/10 12:31:55;;;;;;;5.05;2.72;;;25.30;40.90;;;;;;5075233;28;20285;-81
2023/05/10 12:34:30;;;;;;;3.75;2.10;;;25.40;40.70;;;;;;5074421;28;20655;-83
2023/05/10 12:36:58;;;;;;;5.43;2.20;;;25.60;40.70;;;;;;5075597;28;20189;-81
2023/05/10 12:39:25;;;;;;;7.22;2.40;;;26.00;41.00;;;;;;5082906;28;20186;-85
2023/05/10 12:41:52;;;;;;;5.28;1.88;;;26.00;40.60;;;;;;5084095;28;20202;-87
2023/05/10 12:44:19;;;;;;;5.47;2.20;;;25.20;40.50;;;;;;5082087;28;20228;-80
2023/05/10 12:46:46;;;;;;;5.60;2.33;;;25.50;41.20;;;;;;5077230;28;20202;-86
2023/05/10 12:49:13;;;;;;;6.93;2.90;;;26.00;41.20;;;;;;5077735;28;20261;-82
2023/05/10 12:51:40;;;;;;;6.57;2.20;;;26.00;40.20;;;;;;5076063;28;20191;-78
2023/05/10 12:54:07;;;;;;;5.32;2.40;;;25.70;39.10;;;;;;5073060;28;20752;-86
2023/05/10 12:56:34;;;;;;;4.07;2.53;;;25.50;40.60;;;;;;5076360;28;20233;-82
2023/05/10 12:59:01;;;;;;;5.80;2.67;;;25.80;41.30;;;;;;5075610;28;20673;-85
2023/05/10 13:01:28;;;;;;;4.32;2.30;;;25.20;40.30;;;;;;5075554;28;20277;-85